Terminal Aerodrome Forecast
Issued by NWS Cleveland, OH

Home | Current Version | Previous Version | Graphics & Text | Print | Product List | Glossary On
Versions: 1 2 3 4 5 6 7 8 9 10 11 12 13 14 15 16 17 18 19 20 21
252
FTUS41 KCLE 090533
TAFYNG
TAF
KYNG 090533Z 0906/1006 19007KT P6SM BKN250
     FM091900 19008KT P6SM BKN100
     FM100000 22008KT P6SM OVC040
     FM100300 26010KT 6SM -SHSN BKN025
      TEMPO 1004/1006 2SM -SN OVC015=

USA.gov is the U.S. government's official web portal to all federal, state and local government web resources and services.